createdAt,value
2022-09-12T00:01:25.810Z,4.63
2022-09-12T00:03:59.981Z,5.53
2022-09-12T00:06:32.204Z,8.07
2022-09-12T00:09:04.364Z,10.23
2022-09-12T00:11:40.318Z,7.85
2022-09-12T00:14:10.877Z,6.03
2022-09-12T00:16:39.198Z,5.18
2022-09-12T00:19:08.439Z,8.70
2022-09-12T00:21:37.837Z,8.77
2022-09-12T00:24:06.765Z,5.90
2022-09-12T00:26:34.774Z,10.52
2022-09-12T00:29:02.551Z,6.18
2022-09-12T00:31:30.788Z,7.78
2022-09-12T00:34:00.922Z,7.82
2022-09-12T00:36:30.584Z,5.72
2022-09-12T00:38:58.788Z,7.75
2022-09-12T00:41:32.452Z,5.30
2022-09-12T00:44:10.494Z,4.78
2022-09-12T00:46:41.812Z,17.73
2022-09-12T00:49:26.655Z,10.10
2022-09-12T00:52:16.488Z,9.15
2022-09-12T00:55:06.801Z,9.10
2022-09-12T00:57:49.577Z,8.20
2022-09-12T01:00:21.802Z,11.23
2022-09-12T01:03:00.323Z,7.28
2022-09-12T01:05:29.830Z,8.68
2022-09-12T01:07:57.930Z,9.10
2022-09-12T01:10:25.518Z,9.40
2022-09-12T01:12:53.331Z,10.63
2022-09-12T01:15:21.057Z,9.50
2022-09-12T01:18:08.923Z,13.68
2022-09-12T01:21:04.982Z,12.10
2022-09-12T01:24:09.950Z,11.27
2022-09-12T01:27:02.397Z,9.98
2022-09-12T01:30:02.316Z,13.15
2022-09-12T01:32:59.659Z,13.38
2022-09-12T01:36:08.834Z,10.93
2022-09-12T01:38:43.574Z,11.98
2022-09-12T01:41:23.444Z,15.85
2022-09-12T01:44:15.290Z,12.88
2022-09-12T01:47:09.490Z,14.00
2022-09-12T01:50:19.453Z,16.83
2022-09-12T01:52:51.209Z,12.32
2022-09-12T01:55:24.269Z,11.45
2022-09-12T01:58:01.017Z,12.52
2022-09-12T02:00:29.073Z,12.80
2022-09-12T02:03:24.203Z,15.93
2022-09-12T02:06:01.587Z,11.40
2022-09-12T02:08:33.911Z,16.63
2022-09-12T02:11:09.178Z,15.25
2022-09-12T02:13:46.759Z,17.80
2022-09-12T02:16:42.921Z,13.57
2022-09-12T02:19:18.752Z,15.13
2022-09-12T02:22:02.652Z,16.48
2022-09-12T02:24:40.543Z,15.63
2022-09-12T02:27:15.954Z,19.37
2022-09-12T02:29:45.147Z,22.52
2022-09-12T02:32:33.629Z,20.35
2022-09-12T02:35:49.840Z,19.85
2022-09-12T02:38:37.893Z,16.67
2022-09-12T02:41:05.705Z,22.43
2022-09-12T02:43:33.548Z,17.10
2022-09-12T02:46:01.449Z,16.83
2022-09-12T02:48:34.493Z,24.27
2022-09-12T02:51:03.083Z,24.05
2022-09-12T02:53:30.941Z,18.75
2022-09-12T02:55:59.832Z,12.98
2022-09-12T02:58:30.733Z,15.82
2022-09-12T03:01:53.571Z,16.83
2022-09-12T03:04:44.422Z,16.98
2022-09-12T03:07:33.147Z,21.80
2022-09-12T03:10:12.683Z,20.65
2022-09-12T03:13:09.303Z,15.95
2022-09-12T03:15:51.768Z,17.30
2022-09-12T03:19:01.912Z,16.48
2022-09-12T03:21:33.545Z,21.98
2022-09-12T03:24:17.489Z,25.92
2022-09-12T03:27:03.104Z,24.23
2022-09-12T03:29:31.624Z,20.45
2022-09-12T03:31:59.549Z,21.73
2022-09-12T03:34:28.106Z,18.63
2022-09-12T03:36:56.079Z,21.75
2022-09-12T03:39:24.663Z,19.48
2022-09-12T03:41:52.956Z,24.25
2022-09-12T03:44:20.726Z,22.80
2022-09-12T03:46:48.388Z,24.55
2022-09-12T03:49:16.352Z,18.42
2022-09-12T03:51:43.931Z,20.35
2022-09-12T03:54:11.748Z,19.42
2022-09-12T03:56:40.456Z,20.10
2022-09-12T03:59:08.149Z,23.48
2022-09-12T04:01:35.830Z,25.30
2022-09-12T04:04:03.474Z,17.20
2022-09-12T04:06:31.867Z,26.35
2022-09-12T04:08:59.504Z,23.17
2022-09-12T04:11:27.419Z,18.08
2022-09-12T04:13:55.170Z,18.63
2022-09-12T04:16:23.344Z,20.77
2022-09-12T04:18:51.342Z,20.88
2022-09-12T04:21:21.887Z,21.75
2022-09-12T04:23:50.214Z,22.65
2022-09-12T04:26:19.589Z,19.80
2022-09-12T04:28:47.894Z,22.27
2022-09-12T04:31:18.456Z,27.73
2022-09-12T04:33:46.595Z,24.80
2022-09-12T04:36:17.499Z,25.77
2022-09-12T04:38:47.137Z,22.35
2022-09-12T04:41:18.000Z,21.75
2022-09-12T04:43:46.732Z,23.08
2022-09-12T04:46:16.981Z,24.25
2022-09-12T04:48:44.830Z,22.52
2022-09-12T04:51:14.220Z,24.52
2022-09-12T04:53:42.858Z,21.92
2022-09-12T04:56:12.317Z,28.60
2022-09-12T04:58:40.064Z,23.98
2022-09-12T05:01:10.315Z,17.63
2022-09-12T05:03:39.771Z,20.38
2022-09-12T05:06:09.671Z,22.08
2022-09-12T05:08:37.598Z,21.45
2022-09-12T05:11:07.156Z,22.75
2022-09-12T05:13:34.975Z,26.77
2022-09-12T05:16:04.999Z,24.38
2022-09-12T05:18:36.533Z,23.70
2022-09-12T05:21:06.493Z,21.70
2022-09-12T05:23:34.974Z,23.73
2022-09-12T05:26:04.156Z,22.45
2022-09-12T05:28:37.567Z,26.92
2022-09-12T05:31:32.901Z,27.20
2022-09-12T05:34:00.698Z,26.45
2022-09-12T05:36:30.051Z,25.58
2022-09-12T05:38:59.740Z,27.38
2022-09-12T05:41:31.071Z,21.67
2022-09-12T05:44:00.892Z,22.10
2022-09-12T05:46:31.309Z,24.25
2022-09-12T05:49:07.590Z,23.38
2022-09-12T05:51:38.425Z,18.55
2022-09-12T05:54:08.374Z,30.95
2022-09-12T05:56:39.820Z,24.83
2022-09-12T05:59:30.926Z,22.60
2022-09-12T06:01:58.774Z,24.40
2022-09-12T06:04:26.665Z,22.65
2022-09-12T06:06:54.344Z,24.08
2022-09-12T06:09:25.948Z,27.38
2022-09-12T06:11:56.984Z,21.08
2022-09-12T06:14:29.731Z,22.35
2022-09-12T06:16:57.827Z,19.40
2022-09-12T06:19:28.153Z,21.60
2022-09-12T06:22:03.185Z,19.48
2022-09-12T06:24:32.225Z,22.45
2022-09-12T06:27:02.387Z,20.13
2022-09-12T06:29:32.656Z,20.77
2022-09-12T06:32:00.379Z,26.23
2022-09-12T06:37:10.796Z,23.15
2022-09-12T06:39:38.541Z,17.38
2022-09-12T06:42:07.957Z,21.23
2022-09-12T06:44:37.516Z,22.30
2022-09-12T06:47:09.259Z,20.98
2022-09-12T06:49:38.643Z,19.05
2022-09-12T06:52:07.376Z,23.05
2022-09-12T06:54:35.570Z,18.65
2022-09-12T06:57:03.494Z,15.40
2022-09-12T06:59:31.748Z,14.85
2022-09-12T07:01:59.396Z,23.08
2022-09-12T07:04:28.426Z,19.75
2022-09-12T07:06:57.784Z,22.58
2022-09-12T07:09:26.723Z,18.75
2022-09-12T07:12:00.530Z,20.40
2022-09-12T07:14:31.437Z,22.65
2022-09-12T07:17:08.714Z,21.27
2022-09-12T07:19:50.607Z,16.45
2022-09-12T07:25:48.513Z,19.00
2022-09-12T07:28:48.062Z,13.40
2022-09-12T07:35:13.420Z,16.83
2022-09-12T07:37:54.998Z,17.50
2022-09-12T07:40:24.719Z,14.80
2022-09-12T07:42:53.336Z,16.95
2022-09-12T07:45:22.300Z,13.98
2022-09-12T07:50:27.867Z,13.38
2022-09-12T07:52:56.170Z,19.35
2022-09-12T07:55:38.649Z,16.02
2022-09-12T07:58:06.604Z,17.85
2022-09-12T08:00:36.829Z,16.10
2022-09-12T08:03:07.860Z,16.45
2022-09-12T08:05:37.584Z,14.80
2022-09-12T08:08:06.152Z,14.75
2022-09-12T08:10:37.456Z,12.95
2022-09-12T08:13:14.736Z,19.03
2022-09-12T08:15:44.832Z,14.93
2022-09-12T08:18:17.986Z,19.23
2022-09-12T08:20:48.428Z,13.05
2022-09-12T08:23:16.784Z,10.05
2022-09-12T08:25:45.286Z,12.57
2022-09-12T08:28:14.691Z,15.07
2022-09-12T08:30:42.902Z,21.77
2022-09-12T08:33:16.575Z,13.03
2022-09-12T08:35:46.183Z,15.93
2022-09-12T08:38:17.408Z,16.25
2022-09-12T08:41:06.249Z,10.85
2022-09-12T08:44:12.016Z,9.40
2022-09-12T08:46:42.748Z,11.48
2022-09-12T08:49:14.697Z,12.05
2022-09-12T08:51:44.640Z,10.50
2022-09-12T08:54:27.051Z,11.57
2022-09-12T08:57:06.795Z,9.68
2022-09-12T08:59:41.830Z,10.10
2022-09-12T09:02:34.684Z,8.77
2022-09-12T09:05:39.913Z,9.85
2022-09-12T09:09:00.910Z,10.65
2022-09-12T09:11:50.600Z,8.32
2022-09-12T09:14:49.905Z,12.02
2022-09-12T09:20:19.244Z,8.32
2022-09-12T09:22:54.515Z,8.82
2022-09-12T09:25:36.896Z,9.63
2022-09-12T09:28:21.455Z,8.23
2022-09-12T09:30:50.600Z,8.68
2022-09-12T09:33:32.643Z,6.25
2022-09-12T09:36:40.990Z,6.88
2022-09-12T09:39:41.077Z,12.48
2022-09-12T09:42:13.449Z,9.48
2022-09-12T09:44:44.158Z,11.27
2022-09-12T09:47:13.032Z,7.07
2022-09-12T09:52:13.158Z,8.13
2022-09-12T09:55:01.078Z,8.80
2022-09-12T09:57:39.184Z,8.82
2022-09-12T10:00:27.894Z,6.40
2022-09-12T10:05:52.834Z,8.15
2022-09-12T10:08:29.891Z,6.40
2022-09-12T10:11:19.958Z,8.05
2022-09-12T10:13:51.743Z,7.90
2022-09-12T10:16:35.434Z,8.73
2022-09-12T10:19:04.690Z,9.25
2022-09-12T10:21:52.765Z,10.52
2022-09-12T10:24:27.382Z,6.47
2022-09-12T10:27:16.062Z,11.77
2022-09-12T10:32:36.211Z,14.43
2022-09-12T10:35:16.539Z,10.63
2022-09-12T10:37:57.370Z,10.75
2022-09-12T10:40:33.063Z,6.30
2022-09-12T10:43:02.999Z,4.55
2022-09-12T10:45:39.481Z,4.13
2022-09-12T10:48:35.834Z,6.00
2022-09-12T10:51:18.290Z,2.80
2022-09-12T10:58:15.700Z,4.13
2022-09-12T11:02:15.983Z,5.45
2022-09-12T11:09:33.413Z,4.18
2022-09-12T11:12:57.083Z,4.05
2022-09-12T11:16:02.856Z,4.63
2022-09-12T11:19:51.871Z,4.03
2022-09-12T11:23:27.254Z,6.60
2022-09-12T11:26:40.217Z,5.47
2022-09-12T11:30:01.725Z,2.60
2022-09-12T11:43:08.637Z,3.17
2022-09-12T11:45:52.810Z,4.65
2022-09-12T11:51:40.334Z,4.43
2022-09-12T11:54:28.326Z,3.45
2022-09-12T12:04:19.849Z,5.13
2022-09-12T12:10:00.569Z,3.78
2022-09-12T12:16:04.998Z,3.53
2022-09-12T12:25:08.967Z,2.35
2022-09-12T12:27:56.300Z,5.22
2022-09-12T12:33:50.026Z,3.85
2022-09-12T12:36:43.458Z,11.27
2022-09-12T12:46:06.676Z,4.60
2022-09-12T12:49:34.568Z,4.30
2022-09-12T12:52:10.319Z,8.25
2022-09-12T12:55:05.598Z,5.63
2022-09-12T12:57:51.100Z,5.78
2022-09-12T13:00:54.810Z,10.23
2022-09-12T13:07:08.391Z,7.32
2022-09-12T13:09:57.045Z,8.27
2022-09-12T13:12:52.147Z,6.20
2022-09-12T13:15:56.340Z,8.15
2022-09-12T13:18:40.485Z,11.90
2022-09-12T13:21:10.169Z,8.30
2022-09-12T13:23:38.544Z,9.57
2022-09-12T13:26:14.564Z,9.43
2022-09-12T13:28:42.356Z,10.07
2022-09-12T13:31:22.956Z,12.90
2022-09-12T13:34:04.141Z,9.90
2022-09-12T13:36:55.581Z,9.30
2022-09-12T13:39:46.307Z,7.72
2022-09-12T13:42:29.019Z,10.27
2022-09-12T13:45:21.785Z,13.15
2022-09-12T13:47:58.536Z,9.73
2022-09-12T13:50:50.941Z,10.00
2022-09-12T13:53:27.228Z,15.75
2022-09-12T13:58:31.450Z,14.07
2022-09-12T14:01:07.133Z,14.98
2022-09-12T14:03:59.776Z,13.77
2022-09-12T14:06:30.033Z,15.45
2022-09-12T14:09:01.535Z,13.45
2022-09-12T14:11:33.972Z,21.88
2022-09-12T14:14:06.656Z,21.70
2022-09-12T14:16:40.064Z,17.42
2022-09-12T14:19:14.248Z,16.48
2022-09-12T14:21:43.732Z,15.48
2022-09-12T14:24:17.142Z,16.30
2022-09-12T14:26:45.521Z,17.42
2022-09-12T14:29:16.406Z,13.63
2022-09-12T14:31:44.333Z,17.08
2022-09-12T14:34:16.289Z,18.38
2022-09-12T14:36:47.818Z,14.57
2022-09-12T14:39:38.533Z,18.95
2022-09-12T14:42:18.547Z,17.58
2022-09-12T14:45:14.281Z,18.63
2022-09-12T14:47:44.411Z,14.27
2022-09-12T14:50:24.215Z,14.48
2022-09-12T14:53:28.722Z,22.92
2022-09-12T14:56:06.984Z,14.57
2022-09-12T14:58:35.487Z,18.58
2022-09-12T15:01:06.134Z,20.77
2022-09-12T15:03:55.153Z,14.50
2022-09-12T15:06:33.206Z,22.65
2022-09-12T15:09:06.075Z,14.88
2022-09-12T15:11:34.020Z,20.50
2022-09-12T15:14:14.143Z,17.42
2022-09-12T15:16:41.894Z,19.30
2022-09-12T15:19:09.841Z,16.17
2022-09-12T15:21:38.161Z,16.80
2022-09-12T15:24:06.176Z,19.23
2022-09-12T15:26:35.444Z,21.10
2022-09-12T15:29:04.002Z,14.77
2022-09-12T15:31:32.686Z,16.35
2022-09-12T15:34:02.053Z,16.73
2022-09-12T15:36:30.044Z,20.52
2022-09-12T15:38:58.223Z,13.20
2022-09-12T15:41:37.152Z,20.10
2022-09-12T15:46:33.522Z,15.38
2022-09-12T15:49:01.375Z,15.43
2022-09-12T15:51:29.182Z,13.75
2022-09-12T15:53:56.863Z,22.23
2022-09-12T15:56:24.606Z,20.55
2022-09-12T15:58:59.097Z,17.48
2022-09-12T16:01:28.923Z,14.43
2022-09-12T16:03:57.457Z,16.05
2022-09-12T16:06:25.682Z,12.93
2022-09-12T16:08:53.310Z,13.93
2022-09-12T16:11:26.176Z,19.67
2022-09-12T16:13:55.089Z,12.60
2022-09-12T16:16:22.857Z,10.48
2022-09-12T16:18:50.623Z,11.48
2022-09-12T16:21:18.513Z,10.10
2022-09-12T16:23:47.389Z,8.57
2022-09-12T16:28:43.234Z,12.90
2022-09-12T16:31:13.574Z,11.88
2022-09-12T16:33:41.581Z,12.43
2022-09-12T16:36:15.626Z,9.13
2022-09-12T16:38:45.223Z,11.27
2022-09-12T16:41:13.469Z,14.95
2022-09-12T16:43:42.955Z,12.90
2022-09-12T16:46:13.406Z,10.60
2022-09-12T16:48:52.623Z,8.30
2022-09-12T16:51:26.193Z,12.02
2022-09-12T16:53:55.126Z,10.02
2022-09-12T16:56:23.885Z,12.20
2022-09-12T17:01:21.908Z,9.52
2022-09-12T17:03:56.874Z,5.50
2022-09-12T17:06:25.889Z,12.05
2022-09-12T17:11:30.711Z,12.48
2022-09-12T17:14:04.942Z,11.13
2022-09-12T17:16:50.884Z,16.10
2022-09-12T17:19:32.337Z,28.40
2022-09-12T17:22:00.329Z,27.27
2022-09-12T17:24:28.062Z,27.08
2022-09-12T17:26:57.910Z,27.83
2022-09-12T17:29:25.749Z,24.00
2022-09-12T17:31:55.105Z,22.70
2022-09-12T17:34:23.533Z,25.33
2022-09-12T17:36:51.277Z,33.55
2022-09-12T17:39:18.958Z,28.75
2022-09-12T17:41:47.183Z,29.02
2022-09-12T17:44:17.001Z,24.65
2022-09-12T17:46:44.810Z,14.65
2022-09-12T17:49:15.333Z,14.88
2022-09-12T17:51:44.011Z,11.85
2022-09-12T17:54:17.016Z,8.13
2022-09-12T17:56:49.132Z,10.35
2022-09-12T17:59:19.810Z,7.13
2022-09-12T18:02:06.427Z,9.25
2022-09-12T18:04:48.438Z,6.05
2022-09-12T18:07:18.829Z,6.75
2022-09-12T18:09:50.721Z,7.45
2022-09-12T18:12:20.133Z,6.10
2022-09-12T18:14:57.280Z,6.93
2022-09-12T18:17:28.361Z,5.25
2022-09-12T18:19:56.174Z,7.43
2022-09-12T18:22:23.785Z,6.28
2022-09-12T18:24:51.819Z,8.70
2022-09-12T18:27:19.944Z,6.75
2022-09-12T18:30:04.200Z,5.68
2022-09-12T18:32:37.676Z,9.20
2022-09-12T18:35:07.063Z,7.22
2022-09-12T18:37:35.344Z,9.20
2022-09-12T18:40:03.990Z,11.50
2022-09-12T18:42:31.609Z,8.02
2022-09-12T18:44:59.373Z,8.32
2022-09-12T18:47:26.956Z,5.97
2022-09-12T18:49:56.541Z,7.63
2022-09-12T18:52:24.706Z,11.60
2022-09-12T18:54:53.611Z,11.90
2022-09-12T18:59:48.599Z,15.23
2022-09-12T19:02:17.433Z,17.38
2022-09-12T19:07:17.667Z,18.67
2022-09-12T19:09:50.935Z,19.13
2022-09-12T19:12:19.313Z,22.35
2022-09-12T19:14:47.091Z,23.73
2022-09-12T19:17:15.117Z,22.50
2022-09-12T19:19:42.818Z,17.42
2022-09-12T19:22:13.999Z,20.90
2022-09-12T19:24:42.448Z,20.20
2022-09-12T19:27:13.170Z,11.93
2022-09-12T19:29:41.275Z,11.10
2022-09-12T19:32:11.068Z,14.50
2022-09-12T19:34:43.122Z,13.93
2022-09-12T19:37:11.470Z,13.70
2022-09-12T19:39:45.091Z,13.70
2022-09-12T19:42:13.840Z,12.27
2022-09-12T19:44:43.598Z,14.07
2022-09-12T19:47:17.810Z,13.77
2022-09-12T19:49:45.935Z,16.65
2022-09-12T19:52:17.364Z,6.97
2022-09-12T19:54:46.593Z,6.47
2022-09-12T19:57:18.102Z,6.78
2022-09-12T19:59:46.316Z,9.75
2022-09-12T20:02:19.324Z,10.50
2022-09-12T20:04:54.512Z,5.18
2022-09-12T20:07:50.797Z,10.02
2022-09-12T20:10:22.198Z,9.77
2022-09-12T20:12:53.164Z,7.75
2022-09-12T20:15:22.204Z,6.80
2022-09-12T20:17:57.033Z,12.52
2022-09-12T20:20:31.097Z,14.70
2022-09-12T20:22:59.569Z,9.93
2022-09-12T20:25:27.579Z,12.30
2022-09-12T20:28:00.031Z,8.07
2022-09-12T20:30:28.515Z,11.90
2022-09-12T20:32:56.713Z,9.57
2022-09-12T20:35:24.689Z,10.77
2022-09-12T20:37:52.613Z,10.75
2022-09-12T20:40:20.971Z,14.45
2022-09-12T20:42:50.712Z,8.95
2022-09-12T20:45:19.467Z,12.45
2022-09-12T20:47:48.515Z,12.70
2022-09-12T20:50:19.778Z,11.20
2022-09-12T20:52:51.525Z,17.65
2022-09-12T20:55:20.392Z,14.30
2022-09-12T20:57:50.541Z,14.60
2022-09-12T21:00:18.979Z,14.90
2022-09-12T21:02:46.712Z,16.98
2022-09-12T21:08:38.087Z,18.77
2022-09-12T21:11:31.912Z,20.17
2022-09-12T21:14:01.619Z,15.90
2022-09-12T21:16:29.747Z,18.77
2022-09-12T21:19:00.209Z,15.02
2022-09-12T21:21:38.514Z,19.95
2022-09-12T21:24:09.521Z,16.77
2022-09-12T21:26:37.492Z,16.17
2022-09-12T21:29:07.847Z,15.75
2022-09-12T21:31:39.057Z,16.92
2022-09-12T21:34:11.866Z,14.63
2022-09-12T21:36:45.671Z,23.90
2022-09-12T21:39:14.597Z,12.30
2022-09-12T21:41:42.507Z,17.73
2022-09-12T21:44:11.691Z,11.60
2022-09-12T21:46:41.032Z,14.75
2022-09-12T21:49:08.850Z,4.88
2022-09-12T21:51:36.823Z,14.85
2022-09-12T21:54:05.920Z,16.08
2022-09-12T21:59:02.928Z,12.40
2022-09-12T22:01:31.042Z,8.57
2022-09-12T22:03:58.986Z,12.65
2022-09-12T22:06:28.297Z,7.65
2022-09-12T22:08:57.718Z,19.48
2022-09-12T22:11:25.410Z,12.57
2022-09-12T22:13:53.696Z,17.90
2022-09-12T22:16:21.580Z,16.98
2022-09-12T22:18:51.057Z,10.02
2022-09-12T22:21:23.351Z,12.80
2022-09-12T22:24:13.892Z,15.20
2022-09-12T22:26:43.754Z,24.10
2022-09-12T22:29:15.615Z,20.02
2022-09-12T22:31:51.189Z,18.23
2022-09-12T22:34:20.025Z,9.30
2022-09-12T22:36:51.616Z,11.35
2022-09-12T22:39:20.954Z,10.38
2022-09-12T22:41:51.668Z,8.75
2022-09-12T22:44:22.318Z,13.70
2022-09-12T22:46:51.355Z,16.23
2022-09-12T22:49:21.673Z,15.30
2022-09-12T22:51:50.491Z,13.93
2022-09-12T22:54:20.067Z,8.82
2022-09-12T22:56:48.361Z,6.40
2022-09-12T22:59:18.441Z,14.32
2022-09-12T23:01:47.860Z,13.35
2022-09-12T23:04:17.049Z,13.43
2022-09-12T23:06:44.981Z,13.65
2022-09-12T23:09:13.204Z,18.88
2022-09-12T23:11:42.116Z,15.40
2022-09-12T23:16:39.291Z,10.73
2022-09-12T23:19:11.032Z,10.90
2022-09-12T23:21:38.885Z,18.27
2022-09-12T23:24:07.969Z,12.82
2022-09-12T23:26:39.044Z,14.23
2022-09-12T23:29:11.571Z,12.25
2022-09-12T23:31:41.233Z,15.75
2022-09-12T23:34:12.905Z,17.60
2022-09-12T23:36:42.503Z,24.17
2022-09-12T23:39:11.296Z,15.55
2022-09-12T23:41:42.994Z,8.27
2022-09-12T23:44:12.294Z,15.57
2022-09-12T23:46:41.614Z,24.33
2022-09-12T23:51:40.493Z,13.85
2022-09-12T23:54:10.849Z,10.50
2022-09-12T23:56:39.776Z,13.73
2022-09-12T23:59:09.063Z,21.25
